Time;durP1;ratioP1;P1;durP2;ratioP2;P2;SDS_P1;SDS_P2;PMS_P1;PMS_P2;Temp;Humidity;BMP_temperature;BMP_pressure;BME280_temperature;BME280_humidity;BME280_pressure;Samples;Min_cycle;Max_cycle;Signal;HPM_P1;HPM_P2
2021/03/29 00:00:16;;;;;;;22.87;12.10;;;;;;;3.63;68.49;101766.84;105279;1095;78152;-60
2021/03/29 00:02:41;;;;;;;23.08;11.55;;;;;;;3.65;68.56;101762.26;105309;1095;64136;-60
2021/03/29 00:04:47;;;;;;;22.60;13.10;;;;;;;3.66;68.43;101755.07;105306;1095;80145;-60
2021/03/29 00:06:53;;;;;;;24.90;12.85;;;;;;;3.65;68.46;101756.92;105326;1095;70997;-63
2021/03/29 00:09:00;;;;;;;29.75;13.73;;;;;;;3.65;68.21;101743.56;105317;1095;84813;-63
2021/03/29 00:11:07;;;;;;;27.53;16.63;;;;;;;3.72;68.29;101749.28;105284;1094;77031;-63
2021/03/29 00:13:14;;;;;;;22.63;13.00;;;;;;;3.78;68.26;101757.72;105268;1095;64066;-63
2021/03/29 00:15:24;;;;;;;19.30;11.63;;;;;;;3.86;68.27;101751.80;105284;1094;81602;-61
2021/03/29 00:17:30;;;;;;;22.73;12.55;;;;;;;3.90;68.17;101747.95;105273;1095;71853;-60
2021/03/29 00:19:38;;;;;;;18.33;11.25;;;;;;;3.94;68.14;101742.25;105286;1095;84119;-60
2021/03/29 00:21:43;;;;;;;21.38;12.27;;;;;;;3.98;67.96;101748.23;105258;1095;78351;-64
2021/03/29 00:23:49;;;;;;;22.33;11.80;;;;;;;4.02;67.88;101744.34;105296;1094;64525;-64
2021/03/29 00:25:55;;;;;;;18.80;12.15;;;;;;;4.03;67.85;101743.39;105272;1095;78802;-60
2021/03/29 00:28:01;;;;;;;20.55;11.50;;;;;;;4.05;67.71;101747.66;105329;1095;72103;-61
2021/03/29 00:30:18;;;;;;;20.40;12.02;;;;;;;4.06;67.71;101744.02;105316;1095;83869;-62
2021/03/29 00:32:24;;;;;;;22.70;12.13;;;;;;;4.06;67.67;101746.70;105302;1095;77820;-63
2021/03/29 00:34:32;;;;;;;21.15;10.90;;;;;;;4.06;67.48;101744.02;105301;1095;64133;-63
2021/03/29 00:36:38;;;;;;;21.75;11.98;;;;;;;4.08;67.49;101746.56;105267;1094;80442;-60
2021/03/29 00:38:44;;;;;;;23.47;12.20;;;;;;;4.09;67.41;101738.41;105327;1095;71739;-60
2021/03/29 00:40:55;;;;;;;22.67;12.57;;;;;;;4.13;67.25;101747.92;105318;1095;85051;-60
2021/03/29 00:43:10;;;;;;;21.13;11.80;;;;;;;4.18;67.30;101750.25;105247;1095;77250;-60
2021/03/29 00:45:21;;;;;;;21.15;11.20;;;;;;;4.22;67.29;101753.55;105307;1095;64091;-60
2021/03/29 00:47:28;;;;;;;21.00;11.73;;;;;;;4.27;67.12;101762.08;105283;1095;79936;-60
2021/03/29 00:49:34;;;;;;;17.75;10.85;;;;;;;4.30;67.11;101756.50;105301;1094;72562;-59
2021/03/29 00:51:41;;;;;;;22.47;11.57;;;;;;;4.33;67.09;101761.63;105309;1095;85403;-63
2021/03/29 00:53:49;;;;;;;21.03;10.83;;;;;;;4.36;67.04;101753.37;105279;1095;77656;-63
2021/03/29 00:55:56;;;;;;;19.65;10.27;;;;;;;4.37;67.04;101757.77;105268;1094;64095;-60
2021/03/29 00:58:02;;;;;;;18.63;10.75;;;;;;;4.38;66.98;101759.45;105260;1095;80645;-58
2021/03/29 01:00:24;;;;;;;16.40;10.50;;;;;;;4.40;67.11;101757.50;105282;1095;72215;-61
2021/03/29 01:02:30;;;;;;;21.20;10.40;;;;;;;4.39;67.10;101755.81;105295;1095;85764;-63
2021/03/29 01:04:35;;;;;;;20.25;10.13;;;;;;;4.38;66.85;101759.45;105291;1095;78826;-62
2021/03/29 01:06:44;;;;;;;18.83;10.77;;;;;;;4.39;66.91;101762.02;105315;1094;64357;-62
2021/03/29 01:08:54;;;;;;;19.80;10.75;;;;;;;4.39;66.63;101761.16;105272;1095;80074;-62
2021/03/29 01:11:01;;;;;;;19.02;10.35;;;;;;;4.39;66.73;101761.16;105300;1095;72099;-60
2021/03/29 01:13:10;;;;;;;16.60;10.88;;;;;;;4.37;66.68;101757.77;105302;1095;84370;-60
2021/03/29 01:15:23;;;;;;;21.92;11.52;;;;;;;4.40;66.61;101752.15;105284;1095;77107;-62
2021/03/29 01:17:33;;;;;;;17.65;11.27;;;;;;;4.42;66.53;101760.94;105280;1095;64217;-63
2021/03/29 01:20:07;;;;;;;18.30;10.68;;;;;;;4.46;66.54;101759.71;105309;1095;78972;-63
2021/03/29 01:22:18;;;;;;;18.25;10.45;;;;;;;4.49;66.57;101752.31;105326;1095;70204;-63
2021/03/29 01:24:39;;;;;;;20.38;11.27;;;;;;;4.49;66.74;101757.67;105282;1095;85559;-63
2021/03/29 01:26:47;;;;;;;20.42;10.68;;;;;;;4.51;66.58;101760.21;105304;1095;78761;-60
2021/03/29 01:28:52;;;;;;;19.70;10.68;;;;;;;4.52;66.53;101751.23;105260;1095;64214;-59
2021/03/29 01:30:58;;;;;;;22.73;11.23;;;;;;;4.51;66.55;101754.86;105276;1094;80519;-63
2021/03/29 01:33:06;;;;;;;17.63;11.15;;;;;;;4.48;66.49;101765.79;105341;1095;72239;-63
2021/03/29 01:35:18;;;;;;;21.73;11.80;;;;;;;4.45;66.53;101758.03;105277;1095;84934;-60
2021/03/29 01:37:24;;;;;;;21.63;11.50;;;;;;;4.41;66.52;101757.40;105285;1095;78455;-60
2021/03/29 01:39:31;;;;;;;17.20;11.98;;;;;;;4.40;66.72;101757.50;105309;1095;64146;-60
2021/03/29 01:41:37;;;;;;;21.15;12.23;;;;;;;4.38;66.63;101759.45;105296;1095;79007;-60
2021/03/29 01:43:44;;;;;;;23.40;11.85;;;;;;;4.36;66.65;101753.37;105313;1095;71828;-59
2021/03/29 01:45:50;;;;;;;22.87;12.07;;;;;;;4.35;66.57;101757.86;105281;1094;84217;-60
2021/03/29 01:47:56;;;;;;;18.87;11.47;;;;;;;4.39;66.46;101753.14;105298;1095;77934;-60
2021/03/29 01:50:12;;;;;;;21.00;12.23;;;;;;;4.39;66.61;101748.64;105286;1095;64303;-61
2021/03/29 01:52:18;;;;;;;19.02;11.52;;;;;;;4.37;66.66;101755.91;105278;1095;79325;-63
2021/03/29 01:54:24;;;;;;;19.98;10.82;;;;;;;4.35;66.79;101748.97;105339;1095;70265;-63
2021/03/29 01:56:30;;;;;;;19.37;11.17;;;;;;;4.33;66.69;101754.45;105302;1095;83338;-63
2021/03/29 01:58:36;;;;;;;19.50;10.73;;;;;;;4.33;66.70;101756.27;105279;1095;78530;-62
2021/03/29 02:00:45;;;;;;;18.95;11.60;;;;;;;4.31;66.60;101751.05;105297;1094;64136;-60
2021/03/29 02:02:52;;;;;;;20.38;11.30;;;;;;;4.28;66.84;101753.95;105271;1095;80377;-60
2021/03/29 02:05:01;;;;;;;24.38;12.88;;;;;;;4.27;66.90;101754.05;105307;1095;71389;-59
2021/03/29 02:07:07;;;;;;;20.42;11.95;;;;;;;4.27;66.86;101751.38;105262;1095;84347;-60
2021/03/29 02:09:13;;;;;;;19.35;12.07;;;;;;;4.26;66.88;101744.34;105273;1094;79095;-60
2021/03/29 02:11:20;;;;;;;21.90;12.27;;;;;;;4.26;67.00;101750.52;105313;1095;64152;-62
2021/03/29 02:13:31;;;;;;;22.15;12.57;;;;;;;4.30;66.96;101752.01;105317;1095;80896;-63
2021/03/29 02:15:38;;;;;;;22.73;11.88;;;;;;;4.30;66.92;101752.01;105291;1095;71329;-62
2021/03/29 02:17:51;;;;;;;21.02;12.82;;;;;;;4.32;66.87;101743.85;105273;1095;84937;-62
2021/03/29 02:20:01;;;;;;;23.10;15.07;;;;;;;4.34;66.71;101755.31;105262;1095;77815;-61
2021/03/29 02:22:08;;;;;;;23.00;14.27;;;;;;;4.31;66.94;101748.38;105283;1095;64096;-62
2021/03/29 02:24:14;;;;;;;23.27;13.05;;;;;;;4.30;66.96;101743.98;105301;1095;80084;-63
2021/03/29 02:26:22;;;;;;;27.38;16.45;;;;;;;4.30;66.90;101749.34;105347;1094;72114;-60
2021/03/29 02:28:28;;;;;;;26.87;15.27;;;;;;;4.28;67.02;101748.61;105302;1095;84327;-60
2021/03/29 02:30:38;;;;;;;24.45;14.05;;;;;;;4.25;66.93;101743.48;105301;1095;77562;-64
2021/03/29 02:32:46;;;;;;;25.03;14.47;;;;;;;4.24;66.95;101740.91;105299;1095;64261;-63
2021/03/29 02:34:51;;;;;;;30.40;16.08;;;;;;;4.24;67.03;101741.77;105300;1095;79999;-63
2021/03/29 02:36:59;;;;;;;27.17;15.23;;;;;;;4.26;66.93;101738.99;105273;1095;70748;-60
2021/03/29 02:39:06;;;;;;;29.23;16.42;;;;;;;4.29;66.92;101749.43;105295;1095;83968;-61
2021/03/29 02:41:12;;;;;;;30.55;17.25;;;;;;;4.30;66.84;101741.31;105285;1095;78422;-61
2021/03/29 02:43:22;;;;;;;26.75;14.55;;;;;;;4.35;66.80;101746.30;105303;1095;64117;-61
2021/03/29 02:45:32;;;;;;;25.98;14.20;;;;;;;4.37;66.77;101744.38;105312;1095;80471;-60
2021/03/29 02:47:39;;;;;;;25.17;13.45;;;;;;;4.37;66.68;101753.23;105314;1095;71846;-60
2021/03/29 02:49:49;;;;;;;18.95;11.93;;;;;;;4.37;66.65;101747.89;105310;1095;84520;-61
2021/03/29 02:51:55;;;;;;;20.10;11.38;;;;;;;4.38;66.53;101751.42;105302;1095;77477;-60
2021/03/29 02:54:04;;;;;;;18.98;10.43;;;;;;;4.36;66.58;101753.37;105269;1095;64140;-60
2021/03/29 02:56:16;;;;;;;16.73;10.20;;;;;;;4.34;66.60;101749.97;105320;1095;81531;-60
2021/03/29 02:58:25;;;;;;;18.80;11.15;;;;;;;4.32;66.88;101741.18;105304;1095;72621;-60
2021/03/29 03:00:34;;;;;;;15.70;10.65;;;;;;;4.28;66.71;101743.25;105310;1095;83996;-60
2021/03/29 03:02:40;;;;;;;20.45;12.00;;;;;;;4.31;66.70;101736.81;105264;1095;78021;-60
2021/03/29 03:04:46;;;;;;;24.15;12.88;;;;;;;4.32;66.72;101742.04;105269;1095;64146;-60
2021/03/29 03:06:52;;;;;;;18.85;12.07;;;;;;;4.34;66.84;101742.77;105256;1095;80882;-63
2021/03/29 03:09:00;;;;;;;21.67;12.05;;;;;;;4.35;66.78;101739.13;105339;1095;70903;-63
2021/03/29 03:11:10;;;;;;;19.73;12.17;;;;;;;4.39;66.69;101742.44;105293;1095;86069;-59
2021/03/29 03:13:16;;;;;;;17.73;11.13;;;;;;;4.40;66.84;101749.47;105272;1095;77880;-60
2021/03/29 03:15:25;;;;;;;20.33;10.85;;;;;;;4.42;66.76;101744.88;105307;1095;64358;-64
2021/03/29 03:17:30;;;;;;;20.80;11.40;;;;;;;4.44;66.66;101741.12;105271;1095;81095;-64
2021/03/29 03:19:36;;;;;;;21.30;11.60;;;;;;;4.44;66.56;101737.58;105292;1095;71447;-64
2021/03/29 03:21:42;;;;;;;24.08;11.73;;;;;;;4.47;66.67;101740.03;105308;1095;85062;-60
2021/03/29 03:23:56;;;;;;;21.73;11.88;;;;;;;4.48;66.67;101739.03;105259;1095;77027;-61
2021/03/29 03:26:02;;;;;;;19.45;10.65;;;;;;;4.47;66.79;101730.19;105305;1095;64470;-61
2021/03/29 03:28:10;;;;;;;21.95;11.70;;;;;;;4.46;66.96;101740.98;105304;1095;81177;-61
2021/03/29 03:30:25;;;;;;;20.10;11.35;;;;;;;4.46;66.74;101747.20;105304;1095;72582;-63
2021/03/29 03:32:33;;;;;;;17.70;10.75;;;;;;;4.48;66.85;101737.22;105309;1095;85393;-63
2021/03/29 03:34:39;;;;;;;22.08;11.23;;;;;;;4.53;66.81;101734.21;105273;1095;78702;-63
2021/03/29 03:36:46;;;;;;;23.23;11.65;;;;;;;4.56;66.81;101733.98;105269;1095;64159;-63
2021/03/29 03:38:53;;;;;;;19.95;10.75;;;;;;;4.59;66.98;101741.73;105326;1095;80010;-63
2021/03/29 03:41:02;;;;;;;18.05;10.73;;;;;;;4.59;66.90;101737.25;105322;1095;71227;-62
2021/03/29 03:43:11;;;;;;;18.77;10.68;;;;;;;4.62;66.87;101746.86;105316;1095;85417;-62
2021/03/29 03:45:17;;;;;;;20.17;12.10;;;;;;;4.61;67.08;101734.47;105308;1095;78582;-63
2021/03/29 03:47:23;;;;;;;21.42;12.02;;;;;;;4.60;67.03;101743.45;105284;1095;64376;-62
2021/03/29 03:49:29;;;;;;;18.23;11.10;;;;;;;4.56;67.17;101747.36;105283;1095;80596;-63
2021/03/29 03:51:34;;;;;;;21.92;11.90;;;;;;;4.59;67.08;101749.77;105300;1095;71968;-60
2021/03/29 03:53:41;;;;;;;19.02;10.95;;;;;;;4.60;67.35;101751.48;105298;1095;83382;-60
2021/03/29 03:55:47;;;;;;;21.13;11.67;;;;;;;4.64;67.58;101747.63;105291;1095;77966;-59
2021/03/29 03:57:53;;;;;;;25.17;11.63;;;;;;;4.65;67.62;101751.98;105295;1095;64210;-59
2021/03/29 04:00:00;;;;;;;20.00;11.18;;;;;;;4.63;67.90;101753.93;105300;1095;79942;-60
2021/03/29 04:02:07;;;;;;;20.80;12.27;;;;;;;4.62;67.98;101753.07;105287;1095;72021;-62
2021/03/29 04:04:16;;;;;;;21.60;12.20;;;;;;;4.61;68.36;101755.88;105295;1095;83122;-62
2021/03/29 04:06:24;;;;;;;24.83;12.05;;;;;;;4.60;68.53;101755.02;105257;1095;77875;-64
2021/03/29 04:08:32;;;;;;;19.83;11.55;;;;;;;4.62;68.58;101747.72;105293;1095;64415;-63
2021/03/29 04:10:43;;;;;;;22.73;12.50;;;;;;;4.61;68.73;101751.39;105308;1095;81689;-62
2021/03/29 04:12:52;;;;;;;24.65;12.07;;;;;;;4.60;69.07;101746.13;105282;1095;71954;-64
2021/03/29 04:14:59;;;;;;;21.70;12.00;;;;;;;4.56;69.17;101752.70;105304;1095;83896;-64
2021/03/29 04:17:06;;;;;;;20.27;12.57;;;;;;;4.54;69.46;101751.95;105285;1095;78400;-61
2021/03/29 04:19:11;;;;;;;22.95;12.93;;;;;;;4.54;69.67;101760.84;105321;1095;64136;-60
2021/03/29 04:21:17;;;;;;;19.42;11.85;;;;;;;4.52;69.83;101761.93;105300;1095;80697;-64
2021/03/29 04:23:24;;;;;;;21.60;11.85;;;;;;;4.50;69.94;101758.53;105311;1095;71535;-64
2021/03/29 04:25:33;;;;;;;21.15;12.20;;;;;;;4.50;70.39;101761.20;105301;1095;85036;-64
2021/03/29 04:27:38;;;;;;;18.70;11.85;;;;;;;4.47;70.78;101758.76;105288;1095;78029;-64
2021/03/29 04:29:44;;;;;;;23.30;13.35;;;;;;;4.44;70.58;101759.84;105288;1095;64357;-63
2021/03/29 04:31:49;;;;;;;22.27;13.25;;;;;;;4.48;70.75;101763.11;105287;1095;80575;-63
2021/03/29 04:33:55;;;;;;;21.65;12.45;;;;;;;4.55;70.50;101756.34;105295;1095;72058;-63
2021/03/29 04:36:00;;;;;;;21.42;12.63;;;;;;;4.53;70.82;101759.12;105284;1095;84410;-60
2021/03/29 04:38:06;;;;;;;21.40;12.23;;;;;;;4.55;70.81;101764.38;105260;1095;78866;-60
2021/03/29 04:40:14;;;;;;;21.67;13.35;;;;;;;4.58;70.89;101766.81;105322;1095;64140;-61
2021/03/29 04:42:19;;;;;;;21.35;13.07;;;;;;;4.58;70.96;101761.47;105317;1095;81607;-60
2021/03/29 04:44:25;;;;;;;24.23;13.87;;;;;;;4.59;70.92;101758.66;105354;1095;72060;-59
2021/03/29 04:46:30;;;;;;;22.52;12.52;;;;;;;4.64;70.99;101758.33;105276;1095;84607;-61
2021/03/29 04:48:39;;;;;;;25.00;13.67;;;;;;;4.66;71.00;101761.73;105290;1095;77791;-60
2021/03/29 04:50:45;;;;;;;21.60;13.48;;;;;;;4.66;71.11;101761.73;105318;1095;64140;-64
2021/03/29 04:52:51;;;;;;;22.80;13.63;;;;;;;4.69;71.17;101772.20;105290;1095;81088;-64
2021/03/29 04:55:02;;;;;;;25.92;12.93;;;;;;;4.64;71.67;101766.35;105331;1095;71869;-63
2021/03/29 04:57:09;;;;;;;19.10;12.13;;;;;;;4.62;72.01;101769.13;105318;1095;84248;-62
2021/03/29 04:59:14;;;;;;;18.92;12.98;;;;;;;4.64;71.68;101767.18;105289;1095;77875;-64
2021/03/29 05:01:23;;;;;;;20.60;13.60;;;;;;;4.69;71.45;101758.81;105284;1095;64725;-58
2021/03/29 05:03:32;;;;;;;24.80;12.52;;;;;;;4.74;71.70;101767.34;105291;1095;81055;-61
2021/03/29 05:05:37;;;;;;;20.42;12.63;;;;;;;4.79;71.37;101754.45;105280;1095;71655;-64
2021/03/29 05:07:45;;;;;;;25.48;13.13;;;;;;;4.81;71.48;101748.99;105266;1095;84512;-64
2021/03/29 05:09:50;;;;;;;22.98;12.82;;;;;;;4.78;71.77;101747.38;105229;1095;78909;-64
2021/03/29 05:11:56;;;;;;;22.58;14.10;;;;;;;4.86;71.63;101750.34;105331;1095;64268;-62
2021/03/29 05:14:01;;;;;;;21.10;12.27;;;;;;;4.86;71.81;101755.69;105318;1095;81100;-63
2021/03/29 05:16:08;;;;;;;23.10;13.27;;;;;;;4.89;71.63;101750.06;105301;1095;72354;-60
2021/03/29 05:18:16;;;;;;;18.42;11.80;;;;;;;4.90;71.99;101746.43;105302;1095;83477;-59
2021/03/29 05:20:25;;;;;;;22.70;13.52;;;;;;;4.90;71.96;101741.08;105262;1095;78735;-61
2021/03/29 05:22:30;;;;;;;21.88;12.65;;;;;;;4.89;72.09;101750.06;105327;1095;64405;-60
2021/03/29 05:24:36;;;;;;;20.10;13.10;;;;;;;4.93;72.08;101743.52;105306;1095;80711;-60
2021/03/29 05:26:42;;;;;;;18.88;12.43;;;;;;;4.96;72.26;101729.89;105281;1095;71454;-64
2021/03/29 05:28:48;;;;;;;21.95;13.13;;;;;;;5.02;72.19;101729.41;105415;1091;85388;-59
2021/03/29 05:30:53;;;;;;;21.25;12.32;;;;;;;5.12;72.25;101727.70;105254;1095;77707;-60
2021/03/29 05:32:59;;;;;;;20.55;12.15;;;;;;;5.17;72.23;101728.18;105290;1095;64262;-60
2021/03/29 05:35:07;;;;;;;18.13;12.15;;;;;;;5.25;72.20;101733.78;105378;1091;80797;-60
2021/03/29 05:37:13;;;;;;;20.17;12.23;;;;;;;5.38;72.17;101735.48;105313;1095;71530;-59
2021/03/29 05:39:19;;;;;;;20.00;11.05;;;;;;;5.49;72.09;101730.12;105446;1091;85024;-58
2021/03/29 05:41:24;;;;;;;20.40;11.75;;;;;;;5.52;72.31;101728.02;105258;1095;79470;-60
2021/03/29 05:43:30;;;;;;;20.50;12.00;;;;;;;5.62;72.05;101729.00;105300;1094;64197;-64
2021/03/29 05:45:39;;;;;;;21.90;13.25;;;;;;;5.67;71.80;101731.29;105261;1095;80411;-63
2021/03/29 05:47:45;;;;;;;23.55;13.52;;;;;;;5.71;71.66;101740.80;105287;1095;71324;-64
2021/03/29 05:49:57;;;;;;;22.80;13.30;;;;;;;5.72;71.78;101739.80;105297;1095;83895;-64
2021/03/29 05:52:05;;;;;;;20.60;12.48;;;;;;;5.78;71.70;101736.63;105290;1095;79044;-65
2021/03/29 05:54:11;;;;;;;20.35;13.18;;;;;;;5.82;71.85;101746.14;105284;1095;64214;-64
2021/03/29 05:56:16;;;;;;;24.48;13.10;;;;;;;5.80;71.87;101758.80;105282;1094;80985;-62
2021/03/29 05:58:35;;;;;;;20.20;12.38;;;;;;;5.86;71.75;101761.87;105323;1095;71712;-60
2021/03/29 06:00:44;;;;;;;19.65;11.50;;;;;;;5.94;71.87;101758.55;105306;1095;83268;-60
2021/03/29 06:02:53;;;;;;;20.33;12.20;;;;;;;5.97;71.92;101755.63;105307;1095;78710;-61
2021/03/29 06:05:02;;;;;;;21.90;11.82;;;;;;;6.01;71.69;101751.72;105295;1095;64142;-63
2021/03/29 06:07:16;;;;;;;20.40;12.18;;;;;;;6.09;71.85;101748.39;105269;1094;80569;-64
2021/03/29 06:09:28;;;;;;;19.42;12.15;;;;;;;6.17;71.91;101757.52;105290;1095;71939;-61
2021/03/29 06:11:36;;;;;;;19.58;12.90;;;;;;;6.20;72.01;101751.03;105294;1095;83972;-61
2021/03/29 06:13:41;;;;;;;23.55;13.23;;;;;;;6.24;71.90;101752.46;105263;1095;78702;-64
2021/03/29 06:15:48;;;;;;;17.95;12.43;;;;;;;6.30;72.01;101750.13;105292;1095;64149;-62
2021/03/29 06:18:13;;;;;;;17.60;11.35;;;;;;;6.35;72.33;101747.91;105276;1094;81438;-62
2021/03/29 06:20:22;;;;;;;19.20;12.38;;;;;;;6.41;72.53;101747.39;105329;1095;72705;-62
2021/03/29 06:22:30;;;;;;;18.77;11.07;;;;;;;6.41;72.51;101751.91;105273;1095;83892;-62
2021/03/29 06:25:13;;;;;;;16.63;11.50;;;;;;;6.54;72.30;101752.56;105325;1095;77801;-62
2021/03/29 06:27:19;;;;;;;17.45;11.90;;;;;;;6.64;72.75;101758.88;104953;1098;64146;-62
2021/03/29 06:29:24;;;;;;;19.45;12.65;;;;;;;6.71;72.64;101764.55;104949;1098;80863;-63
2021/03/29 06:31:33;;;;;;;20.15;12.40;;;;;;;6.73;72.60;101758.06;104935;1098;71321;-63
2021/03/29 06:33:48;;;;;;;17.80;11.65;;;;;;;6.78;72.58;101760.38;105270;1094;83446;-63
2021/03/29 06:35:55;;;;;;;19.20;11.63;;;;;;;6.82;72.57;101761.80;105268;1094;77726;-63
2021/03/29 06:38:17;;;;;;;20.05;12.40;;;;;;;6.85;72.65;101758.85;105269;1094;64172;-61
2021/03/29 06:40:27;;;;;;;17.65;11.57;;;;;;;6.89;72.76;101761.16;105305;1095;81396;-61
2021/03/29 06:42:36;;;;;;;23.00;11.90;;;;;;;6.92;72.80;101766.24;105306;1095;70549;-62
2021/03/29 06:44:41;;;;;;;17.67;11.60;;;;;;;6.94;72.91;101764.30;105278;1095;83347;-69
2021/03/29 06:46:46;;;;;;;18.52;10.60;;;;;;;6.92;73.00;101770.79;105292;1095;78098;-65
2021/03/29 06:48:57;;;;;;;18.42;11.63;;;;;;;6.88;73.27;101769.34;105299;1095;64319;-62
2021/03/29 06:51:14;;;;;;;20.67;12.20;;;;;;;6.90;73.14;101770.05;105328;1095;81033;-62
2021/03/29 06:53:29;;;;;;;19.33;12.40;;;;;;;7.00;72.97;101774.48;105311;1095;71188;-62
2021/03/29 06:55:35;;;;;;;20.38;11.70;;;;;;;7.03;73.09;101779.59;105309;1095;84341;-62
2021/03/29 06:57:44;;;;;;;21.55;11.85;;;;;;;7.12;72.88;101780.64;105281;1094;77095;-63
2021/03/29 06:59:55;;;;;;;20.20;11.77;;;;;;;7.17;73.26;101783.77;105289;1095;64155;-62
2021/03/29 07:02:06;;;;;;;19.13;10.93;;;;;;;7.23;72.78;101785.08;105302;1095;81429;-62
2021/03/29 07:04:12;;;;;;;19.92;11.80;;;;;;;7.26;72.80;101785.67;105319;1095;71522;-60
2021/03/29 07:06:25;;;;;;;17.25;11.77;;;;;;;7.21;73.00;101784.37;105300;1095;84704;-62
2021/03/29 07:08:31;;;;;;;17.95;11.82;;;;;;;7.26;73.09;101784.81;105453;1089;78063;-64
2021/03/29 07:10:39;;;;;;;20.90;12.25;;;;;;;7.31;72.79;101783.42;105413;1091;64672;-61
2021/03/29 07:12:47;;;;;;;19.05;11.63;;;;;;;7.35;73.09;101784.88;105271;1095;84204;-61
2021/03/29 07:15:05;;;;;;;20.70;11.98;;;;;;;7.35;73.16;101778.64;105319;1095;70345;-60
2021/03/29 07:17:12;;;;;;;16.90;11.45;;;;;;;7.42;73.55;101777.95;105320;1095;83650;-60
2021/03/29 07:19:18;;;;;;;20.33;11.85;;;;;;;7.49;73.51;101781.82;105286;1095;78203;-60
2021/03/29 07:21:23;;;;;;;19.23;11.07;;;;;;;7.57;73.29;101781.13;105274;1095;64615;-63
2021/03/29 07:23:35;;;;;;;16.10;11.18;;;;;;;7.59;73.41;101779.16;105306;1095;81654;-62
2021/03/29 07:25:43;;;;;;;19.60;11.93;;;;;;;7.65;73.53;101782.16;105309;1095;73182;-62
2021/03/29 07:27:55;;;;;;;27.40;12.83;;;;;;;7.82;73.78;101779.80;105295;1094;83419;-62
2021/03/29 07:30:08;;;;;;;18.87;12.07;;;;;;;8.05;73.44;101775.86;105406;1089;79053;-65
2021/03/29 07:32:35;;;;;;;19.58;12.32;;;;;;;8.21;73.79;101768.94;105587;1089;63482;-64
2021/03/29 07:34:49;;;;;;;19.03;11.37;;;;;;;8.44;73.79;101785.70;105448;1090;79770;-64
2021/03/29 07:36:54;;;;;;;19.00;10.80;;;;;;;8.71;73.59;101774.20;105330;1095;70729;-65
2021/03/29 07:39:00;;;;;;;15.75;10.90;;;;;;;8.88;73.86;101779.72;105284;1095;84315;-62
2021/03/29 07:41:15;;;;;;;18.75;10.90;;;;;;;9.00;73.36;101774.16;105301;1095;79348;-63
2021/03/29 07:43:23;;;;;;;17.88;9.93;;;;;;;9.13;73.17;101771.99;105421;1089;64274;-65
2021/03/29 07:45:50;;;;;;;19.27;9.93;;;;;;;9.25;73.07;101776.22;105295;1095;79912;-64
2021/03/29 07:47:58;;;;;;;16.27;9.20;;;;;;;9.17;72.80;101778.81;105321;1095;71711;-60
2021/03/29 07:50:10;;;;;;;16.27;10.05;;;;;;;9.28;72.85;101786.72;105289;1095;83445;-61
2021/03/29 07:52:31;;;;;;;16.50;8.90;;;;;;;9.24;72.77;101786.16;105250;1095;78898;-62
2021/03/29 07:54:53;;;;;;;17.70;8.65;;;;;;;9.19;72.71;101785.75;105295;1095;64255;-65
2021/03/29 07:57:01;;;;;;;16.67;9.13;;;;;;;9.28;72.63;101789.41;105279;1095;81212;-63
2021/03/29 07:59:10;;;;;;;13.48;8.52;;;;;;;9.41;72.45;101787.23;105321;1095;70497;-64
2021/03/29 08:01:19;;;;;;;14.07;7.80;;;;;;;9.51;72.56;101788.03;105320;1095;83171;-64
2021/03/29 08:03:55;;;;;;;12.98;7.70;;;;;;;9.66;72.74;101778.47;105275;1095;78728;-60
2021/03/29 08:06:01;;;;;;;15.80;8.02;;;;;;;10.06;72.95;101772.67;105470;1089;64137;-60
2021/03/29 08:08:41;;;;;;;12.77;7.25;;;;;;;10.30;72.43;101770.25;105264;1094;82155;-60
2021/03/29 08:11:01;;;;;;;15.30;7.67;;;;;;;10.56;72.16;101773.88;105272;1094;70603;-57
2021/03/29 08:13:07;;;;;;;12.45;7.65;;;;;;;10.61;72.03;101770.70;105298;1094;84435;-63
2021/03/29 08:15:14;;;;;;;14.17;7.73;;;;;;;10.74;71.47;101773.84;105282;1095;77498;-59
2021/03/29 08:17:48;;;;;;;11.32;6.97;;;;;;;10.78;71.34;101766.28;105324;1095;64210;-60
2021/03/29 08:22:28;;;;;;;13.50;7.68;;;;;;;11.14;71.29;101770.59;105816;1092;64204;-59
2021/03/29 08:24:35;;;;;;;13.63;7.90;;;;;;;11.36;70.78;101758.38;105638;1092;79878;-60
2021/03/29 08:26:41;;;;;;;12.20;7.70;;;;;;;11.60;70.48;101761.20;105637;1092;71751;-62
2021/03/29 08:29:29;;;;;;;13.40;8.00;;;;;;;11.76;70.23;101759.44;105666;1092;84525;-61
2021/03/29 08:32:16;;;;;;;14.02;9.07;;;;;;;12.38;70.06;101757.22;105334;1094;78121;-59
2021/03/29 08:34:25;;;;;;;13.60;7.88;;;;;;;12.58;69.12;101758.56;105275;1095;64306;-60
2021/03/29 08:36:32;;;;;;;12.57;7.55;;;;;;;12.61;68.79;101757.41;105237;1095;78660;-60
2021/03/29 08:38:39;;;;;;;12.57;7.43;;;;;;;12.50;68.71;101760.45;105263;1094;70866;-61
2021/03/29 08:40:44;;;;;;;11.40;6.82;;;;;;;12.42;68.49;101762.13;105251;1095;84499;-63
2021/03/29 08:42:53;;;;;;;12.18;6.65;;;;;;;12.54;68.34;101767.22;105255;1095;78548;-63
2021/03/29 08:45:01;;;;;;;13.00;6.93;;;;;;;12.76;68.31;101761.12;105298;1095;64430;-64
2021/03/29 08:47:14;;;;;;;11.05;6.88;;;;;;;12.96;68.05;101759.75;105299;1094;79880;-63
2021/03/29 08:49:20;;;;;;;10.40;6.50;;;;;;;13.26;67.97;101753.63;105293;1095;71436;-62
2021/03/29 08:51:32;;;;;;;11.90;6.45;;;;;;;13.50;67.36;101748.11;105286;1095;86670;-63
2021/03/29 08:53:37;;;;;;;13.18;6.80;;;;;;;13.75;67.05;101742.56;105253;1095;80236;-62
2021/03/29 08:55:46;;;;;;;9.07;6.28;;;;;;;13.89;66.61;101741.82;105310;1095;64492;-61
2021/03/29 08:57:54;;;;;;;10.68;6.45;;;;;;;13.82;65.97;101743.53;105262;1095;79040;-62
2021/03/29 09:00:08;;;;;;;11.00;6.40;;;;;;;13.81;65.80;101753.58;105317;1095;70566;-59
2021/03/29 09:02:19;;;;;;;11.65;6.35;;;;;;;13.87;65.46;101749.31;105261;1095;82953;-59
2021/03/29 09:04:24;;;;;;;10.07;6.07;;;;;;;13.95;65.30;101744.65;105244;1094;78887;-61
2021/03/29 09:06:31;;;;;;;11.43;6.20;;;;;;;13.78;64.97;101748.50;105292;1094;64107;-62
2021/03/29 09:08:37;;;;;;;10.13;6.10;;;;;;;13.68;64.87;101761.42;105288;1095;81713;-62
2021/03/29 09:10:45;;;;;;;11.07;6.13;;;;;;;13.51;64.59;101766.07;105305;1094;71128;-60
2021/03/29 09:12:58;;;;;;;11.40;6.03;;;;;;;13.42;64.31;101764.43;105298;1094;85553;-59
2021/03/29 09:15:16;;;;;;;9.38;6.20;;;;;;;13.43;64.74;101760.67;105297;1094;77353;-60
2021/03/29 09:17:38;;;;;;;9.88;6.30;;;;;;;13.60;64.77;101767.74;105320;1094;64265;-59
2021/03/29 09:19:44;;;;;;;12.50;6.90;;;;;;;13.57;64.47;101770.80;105312;1094;80445;-61
2021/03/29 09:21:58;;;;;;;11.40;5.53;;;;;;;13.52;63.67;101767.77;105373;1091;72416;-62
2021/03/29 09:24:22;;;;;;;12.15;6.13;;;;;;;13.32;64.37;101771.90;105450;1092;84436;-60
2021/03/29 09:26:30;;;;;;;12.15;6.20;;;;;;;13.36;64.42;101775.97;105305;1094;78051;-59
2021/03/29 09:28:40;;;;;;;9.35;5.93;;;;;;;13.40;64.23;101771.91;105463;1092;64088;-59
2021/03/29 09:30:53;;;;;;;10.15;5.75;;;;;;;13.35;64.52;101773.45;105483;1091;79994;-66
2021/03/29 09:33:02;;;;;;;8.73;5.55;;;;;;;13.29;64.70;101772.27;105405;1092;71403;-64
2021/03/29 09:35:17;;;;;;;9.90;5.50;;;;;;;13.30;64.64;101776.66;105317;1094;85145;-63
2021/03/29 09:37:27;;;;;;;11.68;5.72;;;;;;;13.25;64.58;101770.06;105266;1094;76914;-63
2021/03/29 09:39:38;;;;;;;12.95;6.43;;;;;;;13.26;64.65;101778.05;105321;1095;64216;-59
2021/03/29 09:41:53;;;;;;;8.93;5.15;;;;;;;13.18;64.99;101777.21;105298;1094;78991;-59
2021/03/29 09:44:09;;;;;;;11.98;6.18;;;;;;;13.18;64.77;101778.06;105284;1094;71252;-59
2021/03/29 09:46:16;;;;;;;11.57;5.82;;;;;;;13.17;64.69;101780.94;105266;1094;84549;-59
2021/03/29 09:48:30;;;;;;;9.88;6.60;;;;;;;13.17;64.76;101779.08;105305;1094;77074;-61
2021/03/29 09:50:41;;;;;;;10.38;6.22;;;;;;;13.23;64.80;101777.53;105328;1095;64172;-59